KFDR/FDR METAR and TAF weather

Enter ICAO airport designator
Station Type Date Time Source
KFDR METAR 2019/12/06 01:53 UTC NOAA

KFDR 060153Z AUTO 23010KT 10SM CLR 16/04 A2979 RMK AO2 SLP080 T01610039 $


Station Type Date Time Source
KFDR Decoded METAR 2019/12/06 01:53 UTC NOAA

FREDERICK MUNICIPAL AIRPORT, OK, United States (KFDR) 34-21N 98-59W 377M
Dec 05, 2019 - 08:53 PM EST / 2019.12.06 0153 UTC
Wind: from the SW (230 degrees) at 12 MPH (10 KT):0
Visibility: 10 mile(s):0
Sky conditions: clear
Temperature: 61.0 F (16.1 C)
Dew Point: 39.0 F (3.9 C)
Relative Humidity: 44%
Pressure (altimeter): 29.79 in. Hg (1008 hPa)
ob: KFDR 060153Z AUTO 23010KT 10SM CLR 16/04 A2979 RMK AO2 SLP080 T01610039
cycle: 2

Station Type Date Time Source
KFDR TAF UTC NOAA

Error!

Example: see airport list